This is the latest recevied weather packets stored in our database for station/object KY0TEQ-13. If no packets are shown the sender has not sent any weather packets the latest 10 day(s).
| Time | Temp. | Humidity | Pressure | Rain* | Wind** | Luminosity | Snow |
|---|---|---|---|---|---|---|---|
| 1777840034 | 17.22° C | 19% | 1303.4 hPa | 0 mm | - | 260 W/m² | - |
| 1777839732 | 17.78° C | 19% | 1303.8 hPa | 0 mm | - | 333 W/m² | - |
| 1777838519 | 17.78° C | 19% | 1304 hPa | 0 mm | - | 928 W/m² | - |
| 1777838211 | 18.33° C | 19% | 1304.1 hPa | 0 mm | - | 971 W/m² | - |
| 1777837908 | 18.89° C | 18% | 1304.1 hPa | 0 mm | - | 769 W/m² | - |
| 1777837605 | 18.89° C | 19% | 1304.1 hPa | 0 mm | - | 870 W/m² | - |
| 1777836388 | 17.78° C | 22% | 1304.6 hPa | 0 mm | - | 835 W/m² | - |
| 1777834569 | 17.22° C | 20% | 1305.2 hPa | 0 mm | - | 838 W/m² | - |
| 1777834268 | 17.78° C | 21% | 1305.4 hPa | 0 mm | - | 831 W/m² | - |
| 1777833357 | 17.22° C | 21% | 1305.7 hPa | 0 mm | - | 743 W/m² | - |
| 1777833054 | 17.22° C | 21% | 1305.8 hPa | 0 mm | - | 783 W/m² | - |
| 1777832753 | 17.22° C | 20% | 1305.8 hPa | 0 mm | - | 815 W/m² | - |
| 1777832147 | 16.67° C | 22% | 1306 hPa | 0 mm | - | 806 W/m² | - |
| 1777831843 | 15.56° C | 23% | 1306.1 hPa | 0 mm | - | 791 W/m² | - |
| 1777831541 | 16.11° C | 23% | 1306.2 hPa | 0 mm | - | 773 W/m² | - |
| 1777831238 | 15.56° C | 26% | 1306.3 hPa | 0 mm | - | 763 W/m² | - |
| 1777829715 | 16.11° C | 27% | 1306.6 hPa | 0 mm | - | 744 W/m² | - |
| 1777827286 | 14.44° C | 29% | 1307.4 hPa | 0 mm | - | 623 W/m² | - |
| 1777825769 | 13.89° C | 30% | 1307.6 hPa | 0 mm | - | 549 W/m² | - |
| 1777824254 | 13.33° C | 29% | 1307.8 hPa | 0 mm | - | 579 W/m² | - |
| 1777823343 | 12.22° C | 32% | 1307.7 hPa | 0 mm | - | 506 W/m² | - |
| 1777821528 | 11.67° C | 32% | 1307.8 hPa | 0 mm | - | 423 W/m² | - |
| 1777820316 | 11.11° C | 32% | 1307.7 hPa | 0 mm | - | 320 W/m² | - |
| 1777818499 | 10.56° C | 32% | 1308 hPa | 0 mm | - | 219 W/m² | - |
| 1777815469 | 7.78° C | 40% | 1308 hPa | 0 mm | - | 119 W/m² | - |
* Rain latest hour (hover to see other rain measurements)
** Current wind speed in m/s (hover to see current wind gust speed)